SBMQ/MCP METAR and TAF weather

Enter ICAO airport designator
Station Type Date Time Source
SBMQ METAR 2021/03/08 11:00 UTC NOAA

SBMQ 081100Z 29003KT 8000 SCT007 BKN015 BKN080 25/25 Q1011


Station Type Date Time Source
SBMQ Decoded METAR 2021/03/08 11:00 UTC NOAA

Macapa, Brazil (SBMQ) 00-02N 050-03W
Mar 08, 2021 - 06:00 AM EST / 2021.03.08 1100 UTC
Wind: from the WNW (290 degrees) at 3 MPH (3 KT):0
Visibility: 4 mile(s):0
Sky conditions: mostly cloudy
Temperature: 77 F (25 C)
Dew Point: 77 F (25 C)
Relative Humidity: 100%
Pressure (altimeter): 29.85 in. Hg (1011 hPa)
ob: SBMQ 081100Z 29003KT 8000 SCT007 BKN015 BKN080 25/25 Q1011
cycle: 11

Station Type Date Time Source
SBMQ TAF 2021/03/08 12:21 UTC NOAA

TAF SBMQ 080900Z 0812/0912 07007KT 8000 BKN015 TX30/0816Z TN24/0909Z
BECMG 0814/0817 08010KT 7000 BKN017 FEW027TCU
BECMG 0817/0819 5000 TSRA BKN017 FEW027CB
BECMG 0820/0823 02007KT 8000 NSW SCT017
BECMG 0902/0904 35005KT SCT010
BECMG 0904/0906 30005KT 6000 BKN015 PROB40 0909/0912 03007KT 4000 RA BKN010 FEW025TCU
RMK PHN

Example: see airport list